createdAt,value
2023-04-11T00:05:01.456Z,100124.91
2023-04-11T00:10:11.037Z,100120.48
2023-04-11T00:15:20.708Z,100120.21
2023-04-11T00:20:27.961Z,100112.83
2023-04-11T00:25:36.737Z,100106.10
2023-04-11T00:30:44.878Z,100108.64
2023-04-11T00:35:54.441Z,100104.91
2023-04-11T00:41:03.157Z,100099.44
2023-04-11T00:46:11.401Z,100093.62
2023-04-11T00:51:20.785Z,100082.75
2023-04-11T00:56:28.145Z,100072.58
2023-04-11T01:01:36.726Z,100066.20
2023-04-11T01:06:45.189Z,100062.84
2023-04-11T01:11:54.036Z,100057.69
2023-04-11T01:17:02.807Z,100051.52
2023-04-11T01:22:15.112Z,100044.27
2023-04-11T01:27:22.891Z,100042.95
2023-04-11T01:32:30.869Z,100036.60
2023-04-11T01:37:38.762Z,100040.84
2023-04-11T01:42:46.600Z,100036.88
2023-04-11T01:47:55.033Z,100033.82
2023-04-11T01:53:02.507Z,100027.06
2023-04-11T01:58:09.931Z,100019.42
2023-04-11T02:03:17.973Z,100013.20
2023-04-11T02:08:25.196Z,100010.79
2023-04-11T02:13:32.628Z,100007.88
2023-04-11T02:18:41.715Z,100003.06
2023-04-11T02:23:48.957Z,99997.20
2023-04-11T02:28:56.499Z,99994.13
2023-04-11T02:34:03.979Z,99989.33
2023-04-11T02:39:11.614Z,99982.42
2023-04-11T02:44:18.890Z,99977.07
2023-04-11T02:49:26.609Z,99973.30
2023-04-11T02:54:34.166Z,99972.80
2023-04-11T02:59:41.918Z,99968.16
2023-04-11T03:04:49.364Z,99965.57
2023-04-11T03:09:58.414Z,99961.77
2023-04-11T03:15:06.322Z,99952.96
2023-04-11T03:20:20.190Z,99954.20
2023-04-11T03:25:32.804Z,99943.28
2023-04-11T03:30:44.374Z,99934.10
2023-04-11T03:35:53.751Z,99933.09
2023-04-11T03:41:01.119Z,99928.61
2023-04-11T03:46:09.128Z,99921.65
2023-04-11T03:51:20.047Z,99922.02
2023-04-11T03:56:41.223Z,99923.40
2023-04-11T04:01:53.069Z,99924.63
2023-04-11T04:07:02.144Z,99918.38
2023-04-11T04:12:15.032Z,99919.40
2023-04-11T04:17:45.637Z,99923.38
2023-04-11T04:22:58.532Z,99918.91
2023-04-11T04:28:13.329Z,99914.17
2023-04-11T04:33:21.119Z,99910.63
2023-04-11T04:38:30.162Z,99903.95
2023-04-11T04:43:45.791Z,99908.54
2023-04-11T04:48:57.285Z,99898.80
2023-04-11T04:54:05.703Z,99892.80
2023-04-11T04:59:16.073Z,99886.48
2023-04-11T05:04:26.477Z,99883.38
2023-04-11T05:09:35.964Z,99880.63
2023-04-11T05:14:50.640Z,99876.06
2023-04-11T05:19:59.491Z,99868.98
2023-04-11T05:25:09.719Z,99861.34
2023-04-11T05:30:18.601Z,99852.35
2023-04-11T05:35:26.204Z,99845.73
2023-04-11T05:40:35.112Z,99854.66
2023-04-11T05:45:42.458Z,99852.75
2023-04-11T05:50:49.920Z,99841.58
2023-04-11T05:55:58.476Z,99837.80
2023-04-11T06:01:07.712Z,99840.40
2023-04-11T06:06:15.131Z,99833.23
2023-04-11T06:11:22.790Z,99836.73
2023-04-11T06:16:30.238Z,99841.46
2023-04-11T06:21:37.731Z,99833.21
2023-04-11T06:26:44.863Z,99823.70
2023-04-11T06:31:52.119Z,99821.86
2023-04-11T06:36:59.542Z,99815.45
2023-04-11T06:42:07.226Z,99811.69
2023-04-11T06:47:14.948Z,99800.79
2023-04-11T06:52:22.418Z,99788.38
2023-04-11T06:57:30.201Z,99787.79
2023-04-11T07:02:37.587Z,99783.02
2023-04-11T07:07:45.255Z,99771.58
2023-04-11T07:12:52.487Z,99762.98
2023-04-11T07:18:00.039Z,99756.63
2023-04-11T07:23:08.288Z,99755.17
2023-04-11T07:28:16.125Z,99752.42
2023-04-11T07:33:23.308Z,99747.56
2023-04-11T07:38:31.506Z,99741.52
2023-04-11T07:43:38.991Z,99739.20
2023-04-11T07:48:46.246Z,99732.49
2023-04-11T07:53:54.003Z,99725.17
2023-04-11T07:59:01.820Z,99713.06
2023-04-11T08:04:09.834Z,99702.30
2023-04-11T08:09:17.261Z,99695.59
2023-04-11T08:14:24.545Z,99696.53
2023-04-11T08:19:32.797Z,99690.77
2023-04-11T08:24:40.181Z,99689.86
2023-04-11T08:29:47.410Z,99689.03
2023-04-11T08:34:54.672Z,99681.11
2023-04-11T08:40:02.066Z,99679.16
2023-04-11T08:45:11.457Z,99671.45
2023-04-11T08:50:19.205Z,99664.11
2023-04-11T08:55:28.740Z,99650.34
2023-04-11T09:00:36.444Z,99639.26
2023-04-11T09:05:45.729Z,99632.48
2023-04-11T09:10:53.259Z,99617.73
2023-04-11T09:16:12.780Z,99612.45
2023-04-11T09:21:20.748Z,99605.42
2023-04-11T09:26:31.964Z,99598.92
2023-04-11T09:31:46.816Z,99591.42
2023-04-11T09:36:59.764Z,99581.69
2023-04-11T09:42:26.750Z,99572.98
2023-04-11T09:47:37.485Z,99557.52
2023-04-11T09:52:46.977Z,99552.08
2023-04-11T09:57:56.165Z,99545.41
2023-04-11T10:03:03.597Z,99538.62
2023-04-11T10:08:17.062Z,99524.77
2023-04-11T10:19:29.788Z,99505.05
2023-04-11T10:24:37.768Z,99503.70
2023-04-11T10:29:53.003Z,99504.79
2023-04-11T10:35:30.300Z,99493.33
2023-04-11T10:40:37.819Z,99493.25
2023-04-11T10:45:45.769Z,99490.77
2023-04-11T10:50:55.703Z,99489.60
2023-04-11T10:56:04.054Z,99485.02
2023-04-11T11:01:31.818Z,99473.23
2023-04-11T11:06:51.098Z,99469.45
2023-04-11T11:12:15.060Z,99462.19
2023-04-11T11:17:24.158Z,99464.71
2023-04-11T11:22:31.848Z,99465.77
2023-04-11T11:27:39.141Z,99457.92
2023-04-11T11:32:46.741Z,99451.98
2023-04-11T11:37:55.963Z,99453.61
2023-04-11T11:43:03.416Z,99447.93
2023-04-11T11:48:21.042Z,99441.45
2023-04-11T11:53:28.824Z,99443.11
2023-04-11T11:58:46.477Z,99435.20
2023-04-11T12:03:54.375Z,99427.17
2023-04-11T12:09:09.391Z,99422.67
2023-04-11T12:14:25.916Z,99416.41
2023-04-11T12:19:33.265Z,99414.71
2023-04-11T12:24:40.979Z,99410.77
2023-04-11T12:29:48.231Z,99388.16
2023-04-11T12:34:55.758Z,99401.40
2023-04-11T12:40:08.286Z,99385.39
2023-04-11T12:45:18.181Z,99378.35
2023-04-11T12:50:25.822Z,99377.97
2023-04-11T12:55:37.407Z,99365.54
2023-04-11T13:00:44.951Z,99358.45
2023-04-11T13:05:52.712Z,99352.44
2023-04-11T13:11:00.221Z,99345.20
2023-04-11T13:16:08.877Z,99349.44
2023-04-11T13:21:16.372Z,99342.02
2023-04-11T13:26:23.983Z,99341.90
2023-04-11T13:31:32.503Z,99335.22
2023-04-11T13:36:40.073Z,99332.23
2023-04-11T13:41:47.344Z,99328.50
2023-04-11T13:46:55.032Z,99322.96
2023-04-11T13:52:03.087Z,99320.73
2023-04-11T13:57:11.240Z,99321.16
2023-04-11T14:02:18.983Z,99318.44
2023-04-11T14:07:27.266Z,99313.27
2023-04-11T14:12:34.987Z,99314.38
2023-04-11T14:17:44.328Z,99310.36
2023-04-11T14:22:52.065Z,99314.59
2023-04-11T14:27:59.903Z,99309.58
2023-04-11T14:33:07.377Z,99308.31
2023-04-11T14:38:16.165Z,99304.85
2023-04-11T14:43:24.214Z,99302.30
2023-04-11T14:48:31.917Z,99297.13
2023-04-11T14:53:39.383Z,99301.43
2023-04-11T14:58:47.360Z,99289.98
2023-04-11T15:03:55.305Z,99293.84
2023-04-11T15:09:03.982Z,99291.09
2023-04-11T15:14:11.563Z,99285.88
2023-04-11T15:19:19.181Z,99285.71
2023-04-11T15:24:26.607Z,99276.70
2023-04-11T15:29:34.656Z,99274.24
2023-04-11T15:34:41.958Z,99271.64
2023-04-11T15:39:49.810Z,99265.67
2023-04-11T15:44:57.305Z,99257.08
2023-04-11T15:50:05.239Z,99259.94
2023-04-11T15:55:13.735Z,99250.23
2023-04-11T16:00:23.845Z,99248.88
2023-04-11T16:05:33.446Z,99245.73
2023-04-11T16:10:41.061Z,99246.83
2023-04-11T16:15:48.653Z,99242.60
2023-04-11T16:20:56.496Z,99241.84
2023-04-11T16:26:05.449Z,99243.89
2023-04-11T16:31:16.016Z,99243.80
2023-04-11T16:36:23.958Z,99239.82
2023-04-11T16:41:31.862Z,99239.39
2023-04-11T16:46:39.732Z,99236.80
2023-04-11T16:51:47.485Z,99235.64
2023-04-11T16:56:55.010Z,99229.40
2023-04-11T17:02:02.737Z,99231.39
2023-04-11T17:07:11.100Z,99233.95
2023-04-11T17:12:19.096Z,99230.84
2023-04-11T17:17:27.426Z,99227.41
2023-04-11T17:22:36.818Z,99229.30
2023-04-11T17:27:44.474Z,99235.98
2023-04-11T17:32:53.487Z,99240.75
2023-04-11T17:38:02.318Z,99240.58
2023-04-11T17:43:10.787Z,99242.88
2023-04-11T17:48:18.954Z,99241.77
2023-04-11T17:53:26.995Z,99242.20
2023-04-11T17:58:34.995Z,99239.56
2023-04-11T18:03:42.722Z,99241.67
2023-04-11T18:08:51.739Z,99251.58
2023-04-11T18:14:00.654Z,99248.03
2023-04-11T18:19:08.180Z,99252.61
2023-04-11T18:24:15.838Z,99254.33
2023-04-11T18:29:24.464Z,99242.04
2023-04-11T18:34:32.150Z,99259.45
2023-04-11T18:39:40.343Z,99255.45
2023-04-11T18:44:52.511Z,99251.89
2023-04-11T18:50:00.348Z,99259.06
2023-04-11T18:55:10.691Z,99262.77
2023-04-11T19:00:21.215Z,99255.26
2023-04-11T19:05:30.718Z,99253.26
2023-04-11T19:10:38.682Z,99254.66
2023-04-11T19:15:46.932Z,99256.26
2023-04-11T19:20:54.959Z,99255.86
2023-04-11T19:26:02.985Z,99249.93
2023-04-11T19:31:10.991Z,99254.25
2023-04-11T19:36:19.728Z,99256.66
2023-04-11T19:41:27.535Z,99253.11
2023-04-11T19:46:35.541Z,99255.58
2023-04-11T19:51:44.489Z,99262.76
2023-04-11T19:56:54.051Z,99259.65
2023-04-11T20:02:02.885Z,99251.81
2023-04-11T20:07:10.851Z,99248.77
2023-04-11T20:12:18.813Z,99247.40
2023-04-11T20:17:26.478Z,99249.84
2023-04-11T20:22:34.010Z,99247.73
2023-04-11T20:27:41.750Z,99251.06
2023-04-11T20:32:49.933Z,99246.51
2023-04-11T20:37:58.148Z,99245.46
2023-04-11T20:43:07.190Z,99240.73
2023-04-11T20:48:15.243Z,99249.48
2023-04-11T20:53:22.990Z,99247.53
2023-04-11T20:58:31.042Z,99243.26
2023-04-11T21:03:38.978Z,99239.41
2023-04-11T21:08:46.727Z,99237.38
2023-04-11T21:13:55.469Z,99240.08
2023-04-11T21:19:03.324Z,99239.10
2023-04-11T21:24:12.473Z,99233.11
2023-04-11T21:29:20.212Z,99237.64
2023-04-11T21:34:29.045Z,99232.41
2023-04-11T21:39:36.961Z,99229.05
2023-04-11T21:44:44.823Z,99228.86
2023-04-11T21:49:52.301Z,99233.61
2023-04-11T21:54:59.882Z,99227.05
2023-04-11T22:00:11.251Z,99225.27
2023-04-11T22:05:22.655Z,99217.38
2023-04-11T22:10:41.220Z,99221.58
2023-04-11T22:15:59.238Z,99223.27
2023-04-11T22:21:09.909Z,99220.89
2023-04-11T22:26:18.089Z,99220.56
2023-04-11T22:31:34.851Z,99222.42
2023-04-11T22:36:42.548Z,99214.97
2023-04-11T22:41:52.285Z,99216.90
2023-04-11T22:47:06.845Z,99219.69
2023-04-11T22:52:15.750Z,99221.92
2023-04-11T22:57:23.662Z,99203.60
2023-04-11T23:02:32.110Z,99218.66
2023-04-11T23:07:39.818Z,99212.90
2023-04-11T23:12:48.028Z,99211.67
2023-04-11T23:17:55.621Z,99212.02
2023-04-11T23:23:04.496Z,99209.56
2023-04-11T23:28:13.281Z,99209.17
2023-04-11T23:33:22.901Z,99209.44
2023-04-11T23:38:30.809Z,99200.46
2023-04-11T23:43:38.538Z,99209.98
2023-04-11T23:48:47.286Z,99196.27
2023-04-11T23:53:55.202Z,99199.30
2023-04-11T23:59:02.857Z,99198.59
